<?xml version="1.0" encoding="UTF-8" standalone="no" ?>
<gpx xmlns="http://www.topografix.com/GPX/1/1" xmlns:xsi="http://www.w3.org/2001/XMLSchema-instance" xsi:schemaLocation="http://www.topografix.com/GPX/1/1 http://www.topografix.com/GPX/1/1/gpx.xsd" version="1.1" creator="VisuGPX - https://www.visugpx.com">
  <metadata>
    <name>Norvège</name>
  </metadata>
  <trk>
    <name><![CDATA[Tour d'Europe: étape 039]]></name>
    <trkseg>
      <trkpt lat="63.29744" lon="9.83999">
        <ele>46.670233</ele>
        <time>2020-08-06T08:19:09.102Z</time>
      </trkpt>
      <trkpt lat="63.29685" lon="9.84386">
        <ele>56.198024</ele>
        <time>2020-08-06T08:20:31.161Z</time>
      </trkpt>
      <trkpt lat="63.2976" lon="9.84693">
        <ele>61.509894</ele>
        <time>2020-08-06T08:21:43.144Z</time>
      </trkpt>
      <trkpt lat="63.29941" lon="9.84618">
        <ele>60.954898</ele>
        <time>2020-08-06T08:22:48.133Z</time>
      </trkpt>
      <trkpt lat="63.30031" lon="9.84711">
        <ele>62.293134</ele>
        <time>2020-08-06T08:28:48.094Z</time>
      </trkpt>
      <trkpt lat="63.3023" lon="9.8482">
        <ele>64.964073</ele>
        <time>2020-08-06T08:32:36.130Z</time>
      </trkpt>
      <trkpt lat="63.30445" lon="9.84893">
        <ele>64.786662</ele>
        <time>2020-08-06T08:33:37.137Z</time>
      </trkpt>
      <trkpt lat="63.30669" lon="9.85034">
        <ele>64.896232</ele>
        <time>2020-08-06T08:34:31.134Z</time>
      </trkpt>
      <trkpt lat="63.30853" lon="9.85319">
        <ele>63.606406</ele>
        <time>2020-08-06T08:35:37.128Z</time>
      </trkpt>
      <trkpt lat="63.30964" lon="9.85698">
        <ele>66.582462</ele>
        <time>2020-08-06T08:36:41.138Z</time>
      </trkpt>
      <trkpt lat="63.31123" lon="9.86069">
        <ele>60.782974</ele>
        <time>2020-08-06T08:37:21.116Z</time>
      </trkpt>
      <trkpt lat="63.31288" lon="9.86502">
        <ele>52.32984</ele>
        <time>2020-08-06T08:38:03.125Z</time>
      </trkpt>
      <trkpt lat="63.31466" lon="9.86723">
        <ele>49.51414</ele>
        <time>2020-08-06T08:38:43.124Z</time>
      </trkpt>
      <trkpt lat="63.31579" lon="9.87081">
        <ele>63.284808</ele>
        <time>2020-08-06T08:40:15.118Z</time>
      </trkpt>
      <trkpt lat="63.31729" lon="9.87448">
        <ele>69.262491</ele>
        <time>2020-08-06T08:41:23.134Z</time>
      </trkpt>
      <trkpt lat="63.31826" lon="9.87856">
        <ele>79.197035</ele>
        <time>2020-08-06T08:43:12.103Z</time>
      </trkpt>
      <trkpt lat="63.31973" lon="9.88197">
        <ele>84.259868</ele>
        <time>2020-08-06T08:44:24.142Z</time>
      </trkpt>
      <trkpt lat="63.32111" lon="9.88531">
        <ele>91.621188</ele>
        <time>2020-08-06T08:45:06.121Z</time>
      </trkpt>
      <trkpt lat="63.32293" lon="9.88942">
        <ele>90.259189</ele>
        <time>2020-08-06T08:45:46.133Z</time>
      </trkpt>
      <trkpt lat="63.32465" lon="9.89337">
        <ele>81.079638</ele>
        <time>2020-08-06T08:46:43.105Z</time>
      </trkpt>
      <trkpt lat="63.32591" lon="9.89686">
        <ele>79.810077</ele>
        <time>2020-08-06T08:47:47.108Z</time>
      </trkpt>
      <trkpt lat="63.32751" lon="9.90175">
        <ele>74.978526</ele>
        <time>2020-08-06T08:48:33.117Z</time>
      </trkpt>
      <trkpt lat="63.32886" lon="9.90684">
        <ele>67.484201</ele>
        <time>2020-08-06T08:49:13.113Z</time>
      </trkpt>
      <trkpt lat="63.33022" lon="9.9125">
        <ele>59.959349</ele>
        <time>2020-08-06T08:49:53.119Z</time>
      </trkpt>
      <trkpt lat="63.33139" lon="9.91708">
        <ele>61.610846</ele>
        <time>2020-08-06T08:50:35.112Z</time>
      </trkpt>
      <trkpt lat="63.33251" lon="9.92108">
        <ele>78.464477</ele>
        <time>2020-08-06T08:51:38.122Z</time>
      </trkpt>
      <trkpt lat="63.33351" lon="9.92571">
        <ele>73.035275</ele>
        <time>2020-08-06T08:52:34.110Z</time>
      </trkpt>
      <trkpt lat="63.33521" lon="9.93026">
        <ele>65.990247</ele>
        <time>2020-08-06T08:53:13.105Z</time>
      </trkpt>
      <trkpt lat="63.33634" lon="9.93485">
        <ele>64.168988</ele>
        <time>2020-08-06T08:54:16.137Z</time>
      </trkpt>
      <trkpt lat="63.33744" lon="9.93897">
        <ele>69.270166</ele>
        <time>2020-08-06T08:55:16.132Z</time>
      </trkpt>
      <trkpt lat="63.3388" lon="9.94249">
        <ele>82.552994</ele>
        <time>2020-08-06T08:56:24.142Z</time>
      </trkpt>
      <trkpt lat="63.33992" lon="9.94635">
        <ele>90.482666</ele>
        <time>2020-08-06T08:57:35.113Z</time>
      </trkpt>
      <trkpt lat="63.34119" lon="9.95029">
        <ele>96.777514</ele>
        <time>2020-08-06T08:58:59.112Z</time>
      </trkpt>
      <trkpt lat="63.34251" lon="9.95388">
        <ele>93.028906</ele>
        <time>2020-08-06T09:00:01.127Z</time>
      </trkpt>
      <trkpt lat="63.34432" lon="9.95683">
        <ele>90.957568</ele>
        <time>2020-08-06T09:00:57.129Z</time>
      </trkpt>
      <trkpt lat="63.34589" lon="9.96016">
        <ele>81.801838</ele>
        <time>2020-08-06T09:01:37.145Z</time>
      </trkpt>
      <trkpt lat="63.34726" lon="9.96506">
        <ele>69.794889</ele>
        <time>2020-08-06T09:02:19.117Z</time>
      </trkpt>
      <trkpt lat="63.34869" lon="9.96988">
        <ele>61.617216</ele>
        <time>2020-08-06T09:02:59.112Z</time>
      </trkpt>
      <trkpt lat="63.34819" lon="9.97441">
        <ele>59.296236</ele>
        <time>2020-08-06T09:03:39.124Z</time>
      </trkpt>
      <trkpt lat="63.34736" lon="9.97856">
        <ele>59.126354</ele>
        <time>2020-08-06T09:04:26.132Z</time>
      </trkpt>
      <trkpt lat="63.34732" lon="9.98399">
        <ele>65.876612</ele>
        <time>2020-08-06T09:05:23.140Z</time>
      </trkpt>
      <trkpt lat="63.34609" lon="9.98836">
        <ele>59.846772</ele>
        <time>2020-08-06T09:06:16.113Z</time>
      </trkpt>
      <trkpt lat="63.34535" lon="9.99364">
        <ele>51.271418</ele>
        <time>2020-08-06T09:06:59.135Z</time>
      </trkpt>
      <trkpt lat="63.34508" lon="9.99872">
        <ele>52.791307</ele>
        <time>2020-08-06T09:07:52.123Z</time>
      </trkpt>
      <trkpt lat="63.34506" lon="10.00364">
        <ele>55.412898</ele>
        <time>2020-08-06T09:08:41.127Z</time>
      </trkpt>
      <trkpt lat="63.34545" lon="10.00841">
        <ele>60.804297</ele>
        <time>2020-08-06T09:09:45.133Z</time>
      </trkpt>
      <trkpt lat="63.34591" lon="10.01298">
        <ele>64.892702</ele>
        <time>2020-08-06T09:10:45.133Z</time>
      </trkpt>
      <trkpt lat="63.34615" lon="10.01754">
        <ele>58.818943</ele>
        <time>2020-08-06T09:11:45.138Z</time>
      </trkpt>
      <trkpt lat="63.34642" lon="10.02218">
        <ele>66.746895</ele>
        <time>2020-08-06T09:12:45.111Z</time>
      </trkpt>
      <trkpt lat="63.3466" lon="10.0269">
        <ele>69.925608</ele>
        <time>2020-08-06T09:13:48.121Z</time>
      </trkpt>
      <trkpt lat="63.34671" lon="10.03152">
        <ele>76.970583</ele>
        <time>2020-08-06T09:15:00.162Z</time>
      </trkpt>
      <trkpt lat="63.34673" lon="10.03582">
        <ele>89.351881</ele>
        <time>2020-08-06T09:16:20.128Z</time>
      </trkpt>
      <trkpt lat="63.34625" lon="10.04002">
        <ele>93.67007</ele>
        <time>2020-08-06T09:17:40.132Z</time>
      </trkpt>
      <trkpt lat="63.34574" lon="10.04456">
        <ele>104.533794</ele>
        <time>2020-08-06T09:18:55.128Z</time>
      </trkpt>
      <trkpt lat="63.34461" lon="10.04946">
        <ele>104.478612</ele>
        <time>2020-08-06T09:19:49.149Z</time>
      </trkpt>
      <trkpt lat="63.34265" lon="10.05444">
        <ele>92.434358</ele>
        <time>2020-08-06T09:20:29.128Z</time>
      </trkpt>
      <trkpt lat="63.34055" lon="10.05688">
        <ele>81.552134</ele>
        <time>2020-08-06T09:21:01.138Z</time>
      </trkpt>
      <trkpt lat="63.33854" lon="10.05838">
        <ele>74.859142</ele>
        <time>2020-08-06T09:21:21.129Z</time>
      </trkpt>
      <trkpt lat="63.33673" lon="10.06099">
        <ele>65.966773</ele>
        <time>2020-08-06T09:21:42.161Z</time>
      </trkpt>
      <trkpt lat="63.3351" lon="10.06468">
        <ele>63.433983</ele>
        <time>2020-08-06T09:22:16.132Z</time>
      </trkpt>
      <trkpt lat="63.33332" lon="10.06783">
        <ele>63.832722</ele>
        <time>2020-08-06T09:23:08.120Z</time>
      </trkpt>
      <trkpt lat="63.33113" lon="10.06963">
        <ele>63.797031</ele>
        <time>2020-08-06T09:24:03.135Z</time>
      </trkpt>
      <trkpt lat="63.3286" lon="10.06892">
        <ele>59.395702</ele>
        <time>2020-08-06T09:24:51.144Z</time>
      </trkpt>
      <trkpt lat="63.32704" lon="10.07003">
        <ele>53.738726</ele>
        <time>2020-08-06T09:25:53.135Z</time>
      </trkpt>
      <trkpt lat="63.32532" lon="10.07099">
        <ele>51.875919</ele>
        <time>2020-08-06T09:27:01.120Z</time>
      </trkpt>
      <trkpt lat="63.32458" lon="10.07528">
        <ele>57.775492</ele>
        <time>2020-08-06T09:28:24.120Z</time>
      </trkpt>
      <trkpt lat="63.32416" lon="10.08005">
        <ele>58.666496</ele>
        <time>2020-08-06T09:29:35.115Z</time>
      </trkpt>
      <trkpt lat="63.32529" lon="10.08405">
        <ele>61.221343</ele>
        <time>2020-08-06T09:30:42.132Z</time>
      </trkpt>
      <trkpt lat="63.32548" lon="10.08937">
        <ele>60.366675</ele>
        <time>2020-08-06T09:31:29.153Z</time>
      </trkpt>
      <trkpt lat="63.3262" lon="10.09433">
        <ele>52.201735</ele>
        <time>2020-08-06T09:32:01.114Z</time>
      </trkpt>
      <trkpt lat="63.3277" lon="10.0982">
        <ele>49.560127</ele>
        <time>2020-08-06T09:34:26.136Z</time>
      </trkpt>
      <trkpt lat="63.32882" lon="10.10184">
        <ele>52.341928</ele>
        <time>2020-08-06T09:35:25.118Z</time>
      </trkpt>
      <trkpt lat="63.3278" lon="10.10526">
        <ele>58.205843</ele>
        <time>2020-08-06T09:36:11.151Z</time>
      </trkpt>
      <trkpt lat="63.32709" lon="10.10923">
        <ele>55.599249</ele>
        <time>2020-08-06T09:36:58.144Z</time>
      </trkpt>
      <trkpt lat="63.32577" lon="10.11344">
        <ele>47.163281</ele>
        <time>2020-08-06T09:37:38.131Z</time>
      </trkpt>
      <trkpt lat="63.32456" lon="10.11711">
        <ele>52.201263</ele>
        <time>2020-08-06T09:38:20.124Z</time>
      </trkpt>
      <trkpt lat="63.32354" lon="10.1216">
        <ele>57.466419</ele>
        <time>2020-08-06T09:39:06.133Z</time>
      </trkpt>
      <trkpt lat="63.32255" lon="10.12594">
        <ele>56.778584</ele>
        <time>2020-08-06T09:39:46.133Z</time>
      </trkpt>
      <trkpt lat="63.32283" lon="10.13096">
        <ele>54.944326</ele>
        <time>2020-08-06T09:40:36.147Z</time>
      </trkpt>
      <trkpt lat="63.32114" lon="10.13383">
        <ele>51.146794</ele>
        <time>2020-08-06T09:41:29.111Z</time>
      </trkpt>
      <trkpt lat="63.3207" lon="10.13876">
        <ele>54.242571</ele>
        <time>2020-08-06T09:42:14.170Z</time>
      </trkpt>
      <trkpt lat="63.3195" lon="10.14279">
        <ele>60.638403</ele>
        <time>2020-08-06T09:43:17.137Z</time>
      </trkpt>
      <trkpt lat="63.31861" lon="10.14729">
        <ele>55.317456</ele>
        <time>2020-08-06T09:43:57.115Z</time>
      </trkpt>
      <trkpt lat="63.31711" lon="10.15083">
        <ele>49.550361</ele>
        <time>2020-08-06T09:44:37.124Z</time>
      </trkpt>
      <trkpt lat="63.31501" lon="10.15273">
        <ele>48.869597</ele>
        <time>2020-08-06T09:45:19.138Z</time>
      </trkpt>
      <trkpt lat="63.31389" lon="10.15663">
        <ele>60.543095</ele>
        <time>2020-08-06T09:46:19.146Z</time>
      </trkpt>
      <trkpt lat="63.31224" lon="10.15903">
        <ele>62.103074</ele>
        <time>2020-08-06T09:47:04.137Z</time>
      </trkpt>
      <trkpt lat="63.31162" lon="10.16337">
        <ele>66.064546</ele>
        <time>2020-08-06T09:47:59.118Z</time>
      </trkpt>
      <trkpt lat="63.31053" lon="10.16897">
        <ele>53.478932</ele>
        <time>2020-08-06T09:48:41.148Z</time>
      </trkpt>
      <trkpt lat="63.31092" lon="10.17356">
        <ele>47.515018</ele>
        <time>2020-08-06T09:49:21.127Z</time>
      </trkpt>
      <trkpt lat="63.3115" lon="10.17799">
        <ele>48.798795</ele>
        <time>2020-08-06T09:50:03.141Z</time>
      </trkpt>
      <trkpt lat="63.31203" lon="10.18277">
        <ele>50.230244</ele>
        <time>2020-08-06T09:50:55.161Z</time>
      </trkpt>
      <trkpt lat="63.31353" lon="10.18702">
        <ele>50.549107</ele>
        <time>2020-08-06T09:51:55.154Z</time>
      </trkpt>
      <trkpt lat="63.31475" lon="10.19041">
        <ele>46.250575</ele>
        <time>2020-08-06T09:52:35.169Z</time>
      </trkpt>
      <trkpt lat="63.31625" lon="10.19345">
        <ele>46.908218</ele>
        <time>2020-08-06T09:53:19.123Z</time>
      </trkpt>
      <trkpt lat="63.31825" lon="10.19305">
        <ele>49.777747</ele>
        <time>2020-08-06T09:54:07.123Z</time>
      </trkpt>
      <trkpt lat="63.32046" lon="10.19425">
        <ele>51.495875</ele>
        <time>2020-08-06T09:54:57.124Z</time>
      </trkpt>
      <trkpt lat="63.32085" lon="10.19807">
        <ele>49.367947</ele>
        <time>2020-08-06T09:55:40.136Z</time>
      </trkpt>
      <trkpt lat="63.32167" lon="10.20191">
        <ele>51.976812</ele>
        <time>2020-08-06T09:56:22.124Z</time>
      </trkpt>
      <trkpt lat="63.32273" lon="10.20638">
        <ele>49.203565</ele>
        <time>2020-08-06T09:57:06.123Z</time>
      </trkpt>
      <trkpt lat="63.32281" lon="10.21129">
        <ele>45.572997</ele>
        <time>2020-08-06T09:57:46.124Z</time>
      </trkpt>
      <trkpt lat="63.3241" lon="10.21514">
        <ele>43.915966</ele>
        <time>2020-08-06T09:58:28.147Z</time>
      </trkpt>
      <trkpt lat="63.32454" lon="10.22013">
        <ele>46.463831</ele>
        <time>2020-08-06T09:59:11.170Z</time>
      </trkpt>
      <trkpt lat="63.32481" lon="10.2255">
        <ele>51.771938</ele>
        <time>2020-08-06T10:00:11.142Z</time>
      </trkpt>
      <trkpt lat="63.32475" lon="10.2307">
        <ele>53.772656</ele>
        <time>2020-08-06T10:01:10.132Z</time>
      </trkpt>
      <trkpt lat="63.32442" lon="10.2351">
        <ele>54.177439</ele>
        <time>2020-08-06T10:01:52.140Z</time>
      </trkpt>
      <trkpt lat="63.32408" lon="10.23949">
        <ele>55.727529</ele>
        <time>2020-08-06T10:02:35.139Z</time>
      </trkpt>
      <trkpt lat="63.32377" lon="10.24375">
        <ele>56.703166</ele>
        <time>2020-08-06T10:03:15.157Z</time>
      </trkpt>
      <trkpt lat="63.32344" lon="10.24807">
        <ele>56.463584</ele>
        <time>2020-08-06T10:03:56.152Z</time>
      </trkpt>
      <trkpt lat="63.32305" lon="10.2529">
        <ele>57.397006</ele>
        <time>2020-08-06T10:04:43.124Z</time>
      </trkpt>
      <trkpt lat="63.32255" lon="10.25764">
        <ele>58.503746</ele>
        <time>2020-08-06T10:05:33.140Z</time>
      </trkpt>
      <trkpt lat="63.32226" lon="10.263">
        <ele>53.112303</ele>
        <time>2020-08-06T10:06:13.135Z</time>
      </trkpt>
      <trkpt lat="63.32258" lon="10.26808">
        <ele>50.414284</ele>
        <time>2020-08-06T10:06:46.155Z</time>
      </trkpt>
      <trkpt lat="63.32349" lon="10.27322">
        <ele>54.650747</ele>
        <time>2020-08-06T10:07:44.141Z</time>
      </trkpt>
      <trkpt lat="63.32432" lon="10.27804">
        <ele>56.832538</ele>
        <time>2020-08-06T10:14:58.183Z</time>
      </trkpt>
      <trkpt lat="63.32453" lon="10.28292">
        <ele>56.804907</ele>
        <time>2020-08-06T10:15:58.180Z</time>
      </trkpt>
      <trkpt lat="63.32471" lon="10.28738">
        <ele>60.355274</ele>
        <time>2020-08-06T10:16:58.152Z</time>
      </trkpt>
      <trkpt lat="63.32435" lon="10.29192">
        <ele>66.090361</ele>
        <time>2020-08-06T10:18:08.135Z</time>
      </trkpt>
      <trkpt lat="63.32384" lon="10.29564">
        <ele>71.870082</ele>
        <time>2020-08-06T10:19:39.163Z</time>
      </trkpt>
      <trkpt lat="63.32342" lon="10.29967">
        <ele>71.135645</ele>
        <time>2020-08-06T10:20:45.127Z</time>
      </trkpt>
      <trkpt lat="63.32357" lon="10.3035">
        <ele>69.012644</ele>
        <time>2020-08-06T10:21:38.137Z</time>
      </trkpt>
      <trkpt lat="63.3246" lon="10.30727">
        <ele>74.282616</ele>
        <time>2020-08-06T10:22:49.153Z</time>
      </trkpt>
      <trkpt lat="63.32477" lon="10.31208">
        <ele>77.964249</ele>
        <time>2020-08-06T10:24:01.137Z</time>
      </trkpt>
      <trkpt lat="63.32485" lon="10.31633">
        <ele>79.504981</ele>
        <time>2020-08-06T10:25:02.135Z</time>
      </trkpt>
      <trkpt lat="63.32581" lon="10.32003">
        <ele>86.026258</ele>
        <time>2020-08-06T10:26:19.124Z</time>
      </trkpt>
      <trkpt lat="63.32752" lon="10.32269">
        <ele>91.905358</ele>
        <time>2020-08-06T10:27:34.123Z</time>
      </trkpt>
      <trkpt lat="63.32853" lon="10.32698">
        <ele>92.509812</ele>
        <time>2020-08-06T10:28:34.126Z</time>
      </trkpt>
      <trkpt lat="63.33027" lon="10.32868">
        <ele>98.055727</ele>
        <time>2020-08-06T10:29:42.138Z</time>
      </trkpt>
      <trkpt lat="63.33183" lon="10.33128">
        <ele>108.64635</ele>
        <time>2020-08-06T10:31:14.129Z</time>
      </trkpt>
      <trkpt lat="63.33355" lon="10.33275">
        <ele>115.137046</ele>
        <time>2020-08-06T10:32:38.128Z</time>
      </trkpt>
      <trkpt lat="63.33509" lon="10.33469">
        <ele>123.746731</ele>
        <time>2020-08-06T10:34:10.147Z</time>
      </trkpt>
      <trkpt lat="63.33707" lon="10.33591">
        <ele>135.834311</ele>
        <time>2020-08-06T10:35:54.136Z</time>
      </trkpt>
      <trkpt lat="63.33836" lon="10.33926">
        <ele>144.743928</ele>
        <time>2020-08-06T10:37:29.154Z</time>
      </trkpt>
      <trkpt lat="63.34016" lon="10.33868">
        <ele>152.314038</ele>
        <time>2020-08-06T10:38:56.127Z</time>
      </trkpt>
      <trkpt lat="63.34154" lon="10.34116">
        <ele>160.244897</ele>
        <time>2020-08-06T10:40:18.153Z</time>
      </trkpt>
      <trkpt lat="63.34322" lon="10.34453">
        <ele>162.803899</ele>
        <time>2020-08-06T10:41:41.137Z</time>
      </trkpt>
      <trkpt lat="63.34451" lon="10.34801">
        <ele>165.141742</ele>
        <time>2020-08-06T10:42:56.156Z</time>
      </trkpt>
      <trkpt lat="63.34574" lon="10.35155">
        <ele>169.643944</ele>
        <time>2020-08-06T10:44:08.160Z</time>
      </trkpt>
      <trkpt lat="63.34754" lon="10.35384">
        <ele>177.117854</ele>
        <time>2020-08-06T10:45:29.127Z</time>
      </trkpt>
      <trkpt lat="63.34955" lon="10.35518">
        <ele>190.711196</ele>
        <time>2020-08-06T10:47:02.126Z</time>
      </trkpt>
      <trkpt lat="63.35148" lon="10.35673">
        <ele>199.198269</ele>
        <time>2020-08-06T10:49:09.123Z</time>
      </trkpt>
      <trkpt lat="63.3536" lon="10.35748">
        <ele>193.684164</ele>
        <time>2020-08-06T10:50:05.140Z</time>
      </trkpt>
      <trkpt lat="63.3557" lon="10.35858">
        <ele>188.552529</ele>
        <time>2020-08-06T10:50:58.136Z</time>
      </trkpt>
      <trkpt lat="63.35812" lon="10.35971">
        <ele>177.214985</ele>
        <time>2020-08-06T10:51:38.141Z</time>
      </trkpt>
      <trkpt lat="63.36087" lon="10.36111">
        <ele>162.529603</ele>
        <time>2020-08-06T10:52:12.132Z</time>
      </trkpt>
      <trkpt lat="63.36292" lon="10.36375">
        <ele>153.633336</ele>
        <time>2020-08-06T10:52:53.137Z</time>
      </trkpt>
      <trkpt lat="63.36552" lon="10.3652">
        <ele>145.067465</ele>
        <time>2020-08-06T10:53:27.124Z</time>
      </trkpt>
      <trkpt lat="63.36843" lon="10.36703">
        <ele>135.348681</ele>
        <time>2020-08-06T10:54:03.140Z</time>
      </trkpt>
      <trkpt lat="63.37088" lon="10.3682">
        <ele>124.994327</ele>
        <time>2020-08-06T10:54:51.158Z</time>
      </trkpt>
      <trkpt lat="63.37356" lon="10.36701">
        <ele>111.573062</ele>
        <time>2020-08-06T10:55:28.157Z</time>
      </trkpt>
      <trkpt lat="63.3757" lon="10.36591">
        <ele>103.55922</ele>
        <time>2020-08-06T10:56:07.143Z</time>
      </trkpt>
      <trkpt lat="63.37845" lon="10.36821">
        <ele>100.924566</ele>
        <time>2020-08-06T10:56:47.124Z</time>
      </trkpt>
      <trkpt lat="63.38117" lon="10.37046">
        <ele>93.075054</ele>
        <time>2020-08-06T10:57:29.176Z</time>
      </trkpt>
      <trkpt lat="63.3836" lon="10.37147">
        <ele>82.028661</ele>
        <time>2020-08-06T10:58:16.142Z</time>
      </trkpt>
      <trkpt lat="63.38531" lon="10.37333">
        <ele>74.219758</ele>
        <time>2020-08-06T10:59:01.122Z</time>
      </trkpt>
      <trkpt lat="63.38708" lon="10.37594">
        <ele>70.511779</ele>
        <time>2020-08-06T10:59:45.139Z</time>
      </trkpt>
      <trkpt lat="63.38922" lon="10.37916">
        <ele>68.585369</ele>
        <time>2020-08-06T11:00:33.126Z</time>
      </trkpt>
      <trkpt lat="63.3913" lon="10.38187">
        <ele>63.311275</ele>
        <time>2020-08-06T11:01:13.143Z</time>
      </trkpt>
      <trkpt lat="63.39347" lon="10.38341">
        <ele>60.975289</ele>
        <time>2020-08-06T11:01:53.156Z</time>
      </trkpt>
      <trkpt lat="63.3955" lon="10.38521">
        <ele>57.327262</ele>
        <time>2020-08-06T11:02:46.161Z</time>
      </trkpt>
      <trkpt lat="63.39684" lon="10.38867">
        <ele>64.802845</ele>
        <time>2020-08-06T11:05:07.165Z</time>
      </trkpt>
      <trkpt lat="63.3986" lon="10.39157">
        <ele>70.576908</ele>
        <time>2020-08-06T11:06:37.145Z</time>
      </trkpt>
      <trkpt lat="63.40043" lon="10.39403">
        <ele>79.339477</ele>
        <time>2020-08-06T11:07:55.122Z</time>
      </trkpt>
      <trkpt lat="63.40243" lon="10.39522">
        <ele>81.018471</ele>
        <time>2020-08-06T11:09:07.135Z</time>
      </trkpt>
      <trkpt lat="63.4046" lon="10.39634">
        <ele>79.539877</ele>
        <time>2020-08-06T11:10:00.138Z</time>
      </trkpt>
      <trkpt lat="63.40701" lon="10.39707">
        <ele>84.304279</ele>
        <time>2020-08-06T11:10:42.119Z</time>
      </trkpt>
      <trkpt lat="63.40913" lon="10.39751">
        <ele>83.481803</ele>
        <time>2020-08-06T11:11:27.137Z</time>
      </trkpt>
      <trkpt lat="63.41135" lon="10.39797">
        <ele>77.50566</ele>
        <time>2020-08-06T11:12:15.135Z</time>
      </trkpt>
      <trkpt lat="63.41364" lon="10.39743">
        <ele>77.997889</ele>
        <time>2020-08-06T11:13:10.121Z</time>
      </trkpt>
      <trkpt lat="63.41505" lon="10.39929">
        <ele>96.992179</ele>
        <time>2020-08-06T11:15:27.141Z</time>
      </trkpt>
      <trkpt lat="63.41713" lon="10.39846">
        <ele>100.232463</ele>
        <time>2020-08-06T11:16:20.127Z</time>
      </trkpt>
      <trkpt lat="63.41934" lon="10.39763">
        <ele>86.685046</ele>
        <time>2020-08-06T11:17:17.125Z</time>
      </trkpt>
      <trkpt lat="63.42142" lon="10.39889">
        <ele>80.042572</ele>
        <time>2020-08-06T11:18:10.182Z</time>
      </trkpt>
      <trkpt lat="63.42343" lon="10.40082">
        <ele>74.521177</ele>
        <time>2020-08-06T11:19:01.141Z</time>
      </trkpt>
      <trkpt lat="63.4256" lon="10.40354">
        <ele>59.73582</ele>
        <time>2020-08-06T11:19:37.155Z</time>
      </trkpt>
      <trkpt lat="63.42779" lon="10.40312">
        <ele>54.605844</ele>
        <time>2020-08-06T11:32:45.123Z</time>
      </trkpt>
      <trkpt lat="63.42897" lon="10.40061">
        <ele>56.174786</ele>
        <time>2020-08-06T11:34:08.163Z</time>
      </trkpt>
      <trkpt lat="63.43104" lon="10.40212">
        <ele>63.384723</ele>
        <time>2020-08-06T11:35:03.135Z</time>
      </trkpt>
      <trkpt lat="63.43308" lon="10.4037">
        <ele>63.584253</ele>
        <time>2020-08-06T11:35:52.127Z</time>
      </trkpt>
      <trkpt lat="63.43383" lon="10.40019">
        <ele>62.972657</ele>
        <time>2020-08-06T11:37:07.122Z</time>
      </trkpt>
    </trkseg>
  </trk>
</gpx>